sensor_id;sensor_type;location;lat;lon;timestamp;temperature;humidity
423;DHT22;198;48.752;9.180;2023-11-18T00:00:57;6.40;99.90
423;DHT22;198;48.752;9.180;2023-11-18T00:03:23;6.40;99.90
423;DHT22;198;48.752;9.180;2023-11-18T00:05:50;6.40;99.90
423;DHT22;198;48.752;9.180;2023-11-18T00:08:15;6.40;99.90
423;DHT22;198;48.752;9.180;2023-11-18T00:10:41;6.40;99.90
423;DHT22;198;48.752;9.180;2023-11-18T00:13:06;6.50;99.90
423;DHT22;198;48.752;9.180;2023-11-18T00:15:31;6.50;99.90
423;DHT22;198;48.752;9.180;2023-11-18T00:18:00;6.60;99.90
423;DHT22;198;48.752;9.180;2023-11-18T00:20:25;6.60;99.90
423;DHT22;198;48.752;9.180;2023-11-18T00:22:51;6.60;99.90
423;DHT22;198;48.752;9.180;2023-11-18T00:25:20;6.60;99.90
423;DHT22;198;48.752;9.180;2023-11-18T00:27:46;6.70;99.90
423;DHT22;198;48.752;9.180;2023-11-18T00:30:11;6.70;99.90
423;DHT22;198;48.752;9.180;2023-11-18T00:32:38;6.70;99.90
423;DHT22;198;48.752;9.180;2023-11-18T00:35:04;6.70;99.90
423;DHT22;198;48.752;9.180;2023-11-18T00:37:33;6.80;99.90
423;DHT22;198;48.752;9.180;2023-11-18T00:39:58;6.80;99.90
423;DHT22;198;48.752;9.180;2023-11-18T00:42:24;6.80;99.90
423;DHT22;198;48.752;9.180;2023-11-18T00:44:50;6.80;99.90
423;DHT22;198;48.752;9.180;2023-11-18T00:47:15;6.80;99.90
423;DHT22;198;48.752;9.180;2023-11-18T00:49:41;6.80;99.90
423;DHT22;198;48.752;9.180;2023-11-18T00:52:06;6.80;99.90
423;DHT22;198;48.752;9.180;2023-11-18T00:54:32;6.80;99.90
423;DHT22;198;48.752;9.180;2023-11-18T00:56:59;6.70;99.90
423;DHT22;198;48.752;9.180;2023-11-18T00:59:25;6.70;99.90
423;DHT22;198;48.752;9.180;2023-11-18T01:01:52;6.70;99.90
423;DHT22;198;48.752;9.180;2023-11-18T01:04:17;6.70;99.90
423;DHT22;198;48.752;9.180;2023-11-18T01:06:43;6.60;99.90
423;DHT22;198;48.752;9.180;2023-11-18T01:09:09;6.50;99.90
423;DHT22;198;48.752;9.180;2023-11-18T01:11:35;6.50;99.90
423;DHT22;198;48.752;9.180;2023-11-18T01:14:01;6.50;99.90
423;DHT22;198;48.752;9.180;2023-11-18T01:16:27;6.50;99.90
423;DHT22;198;48.752;9.180;2023-11-18T01:18:54;6.50;99.90
423;DHT22;198;48.752;9.180;2023-11-18T01:21:19;6.50;99.90
423;DHT22;198;48.752;9.180;2023-11-18T01:23:45;6.60;99.90
423;DHT22;198;48.752;9.180;2023-11-18T01:26:11;6.50;99.90
423;DHT22;198;48.752;9.180;2023-11-18T01:28:38;6.50;99.90
423;DHT22;198;48.752;9.180;2023-11-18T01:31:08;6.40;99.90
423;DHT22;198;48.752;9.180;2023-11-18T01:33:35;6.40;99.90
423;DHT22;198;48.752;9.180;2023-11-18T01:36:02;6.40;99.90
423;DHT22;198;48.752;9.180;2023-11-18T01:38:28;6.40;99.90
423;DHT22;198;48.752;9.180;2023-11-18T01:40:54;6.40;99.90
423;DHT22;198;48.752;9.180;2023-11-18T01:43:20;6.40;99.90
423;DHT22;198;48.752;9.180;2023-11-18T01:45:47;6.40;99.90
423;DHT22;198;48.752;9.180;2023-11-18T01:48:13;6.40;99.90
423;DHT22;198;48.752;9.180;2023-11-18T01:50:41;6.50;99.90
423;DHT22;198;48.752;9.180;2023-11-18T01:53:07;6.50;99.90
423;DHT22;198;48.752;9.180;2023-11-18T01:55:33;6.50;99.90
423;DHT22;198;48.752;9.180;2023-11-18T01:58:00;6.50;99.90
423;DHT22;198;48.752;9.180;2023-11-18T02:00:29;6.50;99.90
423;DHT22;198;48.752;9.180;2023-11-18T02:02:56;6.50;99.90
423;DHT22;198;48.752;9.180;2023-11-18T02:05:21;6.50;99.90
423;DHT22;198;48.752;9.180;2023-11-18T02:07:47;6.50;99.90
423;DHT22;198;48.752;9.180;2023-11-18T02:10:13;6.50;99.90
423;DHT22;198;48.752;9.180;2023-11-18T02:12:55;6.50;99.90
423;DHT22;198;48.752;9.180;2023-11-18T02:15:24;6.50;99.90
423;DHT22;198;48.752;9.180;2023-11-18T02:17:52;6.50;99.90
423;DHT22;198;48.752;9.180;2023-11-18T02:20:18;6.40;99.90
423;DHT22;198;48.752;9.180;2023-11-18T02:22:46;6.50;99.90
423;DHT22;198;48.752;9.180;2023-11-18T02:25:16;6.50;99.90
423;DHT22;198;48.752;9.180;2023-11-18T02:27:43;6.50;99.90
423;DHT22;198;48.752;9.180;2023-11-18T02:30:10;6.50;99.90
423;DHT22;198;48.752;9.180;2023-11-18T02:32:50;6.50;99.90
423;DHT22;198;48.752;9.180;2023-11-18T02:35:29;6.40;99.90
423;DHT22;198;48.752;9.180;2023-11-18T02:37:55;6.40;99.90
423;DHT22;198;48.752;9.180;2023-11-18T02:40:36;6.40;99.90
423;DHT22;198;48.752;9.180;2023-11-18T02:43:04;6.40;99.90
423;DHT22;198;48.752;9.180;2023-11-18T02:45:31;6.50;99.90
423;DHT22;198;48.752;9.180;2023-11-18T02:47:57;6.50;99.90
423;DHT22;198;48.752;9.180;2023-11-18T02:50:26;6.60;99.90
423;DHT22;198;48.752;9.180;2023-11-18T02:52:53;6.60;99.90
423;DHT22;198;48.752;9.180;2023-11-18T02:55:19;6.70;99.90
423;DHT22;198;48.752;9.180;2023-11-18T02:57:46;6.70;99.90
423;DHT22;198;48.752;9.180;2023-11-18T03:00:12;6.60;99.90
423;DHT22;198;48.752;9.180;2023-11-18T03:02:47;6.50;99.90
423;DHT22;198;48.752;9.180;2023-11-18T03:05:14;6.30;99.90
423;DHT22;198;48.752;9.180;2023-11-18T03:07:43;6.20;99.90
423;DHT22;198;48.752;9.180;2023-11-18T03:10:16;6.00;99.90
423;DHT22;198;48.752;9.180;2023-11-18T03:12:53;5.90;99.90
423;DHT22;198;48.752;9.180;2023-11-18T03:15:19;5.80;99.90
423;DHT22;198;48.752;9.180;2023-11-18T03:17:48;5.70;99.90
423;DHT22;198;48.752;9.180;2023-11-18T03:20:16;5.60;99.90
423;DHT22;198;48.752;9.180;2023-11-18T03:22:51;5.50;99.90
423;DHT22;198;48.752;9.180;2023-11-18T03:25:18;5.50;99.90
423;DHT22;198;48.752;9.180;2023-11-18T03:27:47;5.30;99.90
423;DHT22;198;48.752;9.180;2023-11-18T03:30:13;5.20;99.90
423;DHT22;198;48.752;9.180;2023-11-18T03:32:39;5.20;99.90
423;DHT22;198;48.752;9.180;2023-11-18T03:35:08;5.20;99.90
423;DHT22;198;48.752;9.180;2023-11-18T03:37:40;5.20;99.90
423;DHT22;198;48.752;9.180;2023-11-18T03:40:11;5.30;99.90
423;DHT22;198;48.752;9.180;2023-11-18T03:42:38;5.40;99.90
423;DHT22;198;48.752;9.180;2023-11-18T03:45:05;5.50;99.90
423;DHT22;198;48.752;9.180;2023-11-18T03:47:31;5.60;99.90
423;DHT22;198;48.752;9.180;2023-11-18T03:49:57;5.80;99.90
423;DHT22;198;48.752;9.180;2023-11-18T03:52:23;5.90;99.90
423;DHT22;198;48.752;9.180;2023-11-18T03:54:49;6.00;99.90
423;DHT22;198;48.752;9.180;2023-11-18T03:57:15;6.10;99.90
423;DHT22;198;48.752;9.180;2023-11-18T03:59:40;6.20;99.90
423;DHT22;198;48.752;9.180;2023-11-18T04:02:06;6.20;99.90
423;DHT22;198;48.752;9.180;2023-11-18T04:04:32;6.20;99.90
423;DHT22;198;48.752;9.180;2023-11-18T04:06:57;6.10;99.90
423;DHT22;198;48.752;9.180;2023-11-18T04:09:26;6.10;99.90
423;DHT22;198;48.752;9.180;2023-11-18T04:11:52;6.00;99.90
423;DHT22;198;48.752;9.180;2023-11-18T04:14:17;6.00;99.90
423;DHT22;198;48.752;9.180;2023-11-18T04:16:45;5.90;99.90
423;DHT22;198;48.752;9.180;2023-11-18T04:19:11;5.90;99.90
423;DHT22;198;48.752;9.180;2023-11-18T04:21:37;5.80;99.90
423;DHT22;198;48.752;9.180;2023-11-18T04:24:03;5.70;99.90
423;DHT22;198;48.752;9.180;2023-11-18T04:26:31;5.60;99.90
423;DHT22;198;48.752;9.180;2023-11-18T04:28:56;5.50;99.90
423;DHT22;198;48.752;9.180;2023-11-18T04:31:22;5.40;99.90
423;DHT22;198;48.752;9.180;2023-11-18T04:33:48;5.30;99.90
423;DHT22;198;48.752;9.180;2023-11-18T04:36:13;5.20;99.90
423;DHT22;198;48.752;9.180;2023-11-18T04:38:41;5.10;99.90
423;DHT22;198;48.752;9.180;2023-11-18T04:41:07;5.10;99.90
423;DHT22;198;48.752;9.180;2023-11-18T04:43:33;5.10;99.90
423;DHT22;198;48.752;9.180;2023-11-18T04:45:59;5.10;99.90
423;DHT22;198;48.752;9.180;2023-11-18T04:48:25;5.00;99.90
423;DHT22;198;48.752;9.180;2023-11-18T04:50:50;5.00;99.90
423;DHT22;198;48.752;9.180;2023-11-18T04:53:16;4.90;99.90
423;DHT22;198;48.752;9.180;2023-11-18T04:55:42;4.90;99.90
423;DHT22;198;48.752;9.180;2023-11-18T04:58:07;4.80;99.90
423;DHT22;198;48.752;9.180;2023-11-18T05:00:36;4.80;99.90
423;DHT22;198;48.752;9.180;2023-11-18T05:03:03;4.80;99.90
423;DHT22;198;48.752;9.180;2023-11-18T05:05:29;4.90;99.90
423;DHT22;198;48.752;9.180;2023-11-18T05:07:54;4.90;99.90
423;DHT22;198;48.752;9.180;2023-11-18T05:10:20;4.90;99.90
423;DHT22;198;48.752;9.180;2023-11-18T05:12:47;4.90;99.90
423;DHT22;198;48.752;9.180;2023-11-18T05:15:21;4.80;99.90
423;DHT22;198;48.752;9.180;2023-11-18T05:17:50;4.80;99.90
423;DHT22;198;48.752;9.180;2023-11-18T05:20:16;4.70;99.90
423;DHT22;198;48.752;9.180;2023-11-18T05:22:43;4.70;99.90
423;DHT22;198;48.752;9.180;2023-11-18T05:25:08;4.70;99.90
423;DHT22;198;48.752;9.180;2023-11-18T05:27:35;4.60;99.90
423;DHT22;198;48.752;9.180;2023-11-18T05:30:01;4.60;99.90
423;DHT22;198;48.752;9.180;2023-11-18T05:32:27;4.70;99.90
423;DHT22;198;48.752;9.180;2023-11-18T05:34:53;4.70;99.90
423;DHT22;198;48.752;9.180;2023-11-18T05:37:23;4.80;99.90
423;DHT22;198;48.752;9.180;2023-11-18T05:39:49;4.80;99.90
423;DHT22;198;48.752;9.180;2023-11-18T05:42:24;4.80;99.90
423;DHT22;198;48.752;9.180;2023-11-18T05:44:50;4.80;99.90
423;DHT22;198;48.752;9.180;2023-11-18T05:47:23;4.80;99.90
423;DHT22;198;48.752;9.180;2023-11-18T05:49:48;4.80;99.90
423;DHT22;198;48.752;9.180;2023-11-18T05:52:14;4.80;99.90
423;DHT22;198;48.752;9.180;2023-11-18T05:54:39;4.90;99.90
423;DHT22;198;48.752;9.180;2023-11-18T05:57:05;4.80;99.90
423;DHT22;198;48.752;9.180;2023-11-18T05:59:31;4.80;99.90
423;DHT22;198;48.752;9.180;2023-11-18T06:01:56;4.80;99.90
423;DHT22;198;48.752;9.180;2023-11-18T06:04:22;4.80;99.90
423;DHT22;198;48.752;9.180;2023-11-18T06:06:47;4.70;99.90
423;DHT22;198;48.752;9.180;2023-11-18T06:09:13;4.70;99.90
423;DHT22;198;48.752;9.180;2023-11-18T06:11:46;4.60;99.90
423;DHT22;198;48.752;9.180;2023-11-18T06:14:12;4.50;99.90
423;DHT22;198;48.752;9.180;2023-11-18T06:16:38;4.50;99.90
423;DHT22;198;48.752;9.180;2023-11-18T06:19:06;4.40;99.90
423;DHT22;198;48.752;9.180;2023-11-18T06:21:32;4.30;99.90
423;DHT22;198;48.752;9.180;2023-11-18T06:23:58;4.30;99.90
423;DHT22;198;48.752;9.180;2023-11-18T06:26:24;4.20;99.90
423;DHT22;198;48.752;9.180;2023-11-18T06:28:53;4.20;99.90
423;DHT22;198;48.752;9.180;2023-11-18T06:31:20;4.10;99.90
423;DHT22;198;48.752;9.180;2023-11-18T06:33:46;4.10;99.90
423;DHT22;198;48.752;9.180;2023-11-18T06:38:51;4.00;99.90
423;DHT22;198;48.752;9.180;2023-11-18T06:41:18;4.00;99.90
423;DHT22;198;48.752;9.180;2023-11-18T06:43:45;4.00;99.90
423;DHT22;198;48.752;9.180;2023-11-18T06:46:21;4.00;99.90
423;DHT22;198;48.752;9.180;2023-11-18T06:48:50;4.00;99.90
423;DHT22;198;48.752;9.180;2023-11-18T06:51:20;4.00;99.90
423;DHT22;198;48.752;9.180;2023-11-18T06:53:46;4.00;99.90
423;DHT22;198;48.752;9.180;2023-11-18T06:56:11;4.00;99.90
423;DHT22;198;48.752;9.180;2023-11-18T06:58:39;4.00;99.90
423;DHT22;198;48.752;9.180;2023-11-18T07:01:05;4.00;99.90
423;DHT22;198;48.752;9.180;2023-11-18T07:03:31;4.10;99.90
423;DHT22;198;48.752;9.180;2023-11-18T07:05:57;4.10;99.90
423;DHT22;198;48.752;9.180;2023-11-18T07:08:22;4.20;99.90
423;DHT22;198;48.752;9.180;2023-11-18T07:10:48;4.20;99.90
423;DHT22;198;48.752;9.180;2023-11-18T07:13:14;4.40;99.90
423;DHT22;198;48.752;9.180;2023-11-18T07:15:39;4.40;99.90
423;DHT22;198;48.752;9.180;2023-11-18T07:18:06;4.50;99.90
423;DHT22;198;48.752;9.180;2023-11-18T07:20:34;4.60;99.90
423;DHT22;198;48.752;9.180;2023-11-18T07:23:00;4.70;99.90
423;DHT22;198;48.752;9.180;2023-11-18T07:25:25;4.80;99.90
423;DHT22;198;48.752;9.180;2023-11-18T07:27:51;4.90;99.90
423;DHT22;198;48.752;9.180;2023-11-18T07:30:16;5.00;99.90
423;DHT22;198;48.752;9.180;2023-11-18T07:32:43;5.00;99.90
423;DHT22;198;48.752;9.180;2023-11-18T07:35:09;5.10;99.90
423;DHT22;198;48.752;9.180;2023-11-18T07:37:35;5.20;99.90
423;DHT22;198;48.752;9.180;2023-11-18T07:40:03;5.30;99.90
423;DHT22;198;48.752;9.180;2023-11-18T07:42:31;5.40;99.90
423;DHT22;198;48.752;9.180;2023-11-18T07:45:00;5.60;99.90
423;DHT22;198;48.752;9.180;2023-11-18T07:47:29;5.80;99.90
423;DHT22;198;48.752;9.180;2023-11-18T07:49:57;6.00;99.90
423;DHT22;198;48.752;9.180;2023-11-18T07:52:23;6.20;99.90
423;DHT22;198;48.752;9.180;2023-11-18T07:54:49;6.40;99.90
423;DHT22;198;48.752;9.180;2023-11-18T07:57:14;6.50;99.90
423;DHT22;198;48.752;9.180;2023-11-18T07:59:40;6.60;99.90
423;DHT22;198;48.752;9.180;2023-11-18T08:02:05;6.70;99.90
423;DHT22;198;48.752;9.180;2023-11-18T08:04:34;6.70;99.90
423;DHT22;198;48.752;9.180;2023-11-18T08:07:00;6.80;99.90
423;DHT22;198;48.752;9.180;2023-11-18T08:09:26;6.90;99.90
423;DHT22;198;48.752;9.180;2023-11-18T08:11:51;7.10;99.90
423;DHT22;198;48.752;9.180;2023-11-18T08:14:20;7.30;99.90
423;DHT22;198;48.752;9.180;2023-11-18T08:16:46;7.50;99.90
423;DHT22;198;48.752;9.180;2023-11-18T08:19:12;7.60;99.90
423;DHT22;198;48.752;9.180;2023-11-18T08:21:38;7.70;99.90
423;DHT22;198;48.752;9.180;2023-11-18T08:24:05;7.70;99.90
423;DHT22;198;48.752;9.180;2023-11-18T08:26:31;7.60;99.90
423;DHT22;198;48.752;9.180;2023-11-18T08:28:57;7.60;99.90
423;DHT22;198;48.752;9.180;2023-11-18T08:31:22;7.60;99.90
423;DHT22;198;48.752;9.180;2023-11-18T08:33:48;7.50;99.90
423;DHT22;198;48.752;9.180;2023-11-18T08:36:13;7.40;99.90
423;DHT22;198;48.752;9.180;2023-11-18T08:38:39;7.30;99.90
423;DHT22;198;48.752;9.180;2023-11-18T08:41:05;7.30;99.90
423;DHT22;198;48.752;9.180;2023-11-18T08:43:34;7.30;99.90
423;DHT22;198;48.752;9.180;2023-11-18T08:46:00;7.40;99.90
423;DHT22;198;48.752;9.180;2023-11-18T08:48:26;7.40;99.90
423;DHT22;198;48.752;9.180;2023-11-18T08:50:53;7.40;99.90
423;DHT22;198;48.752;9.180;2023-11-18T08:53:19;7.40;99.90
423;DHT22;198;48.752;9.180;2023-11-18T08:55:51;7.50;99.90
423;DHT22;198;48.752;9.180;2023-11-18T08:58:19;7.50;99.90
423;DHT22;198;48.752;9.180;2023-11-18T09:00:46;7.50;99.90
423;DHT22;198;48.752;9.180;2023-11-18T09:03:24;7.50;99.90
423;DHT22;198;48.752;9.180;2023-11-18T09:05:57;7.60;99.90
423;DHT22;198;48.752;9.180;2023-11-18T09:08:34;8.00;99.90
423;DHT22;198;48.752;9.180;2023-11-18T09:11:10;8.50;99.90
423;DHT22;198;48.752;9.180;2023-11-18T09:13:44;9.00;99.90
423;DHT22;198;48.752;9.180;2023-11-18T09:16:14;9.60;99.90
423;DHT22;198;48.752;9.180;2023-11-18T09:18:42;9.80;99.90
423;DHT22;198;48.752;9.180;2023-11-18T09:21:10;9.70;99.90
423;DHT22;198;48.752;9.180;2023-11-18T09:23:50;9.70;99.90
423;DHT22;198;48.752;9.180;2023-11-18T09:26:15;9.40;99.90
423;DHT22;198;48.752;9.180;2023-11-18T09:28:42;9.30;99.90
423;DHT22;198;48.752;9.180;2023-11-18T09:31:08;9.40;99.90
423;DHT22;198;48.752;9.180;2023-11-18T09:33:41;9.50;99.90
423;DHT22;198;48.752;9.180;2023-11-18T09:36:17;9.70;99.90
423;DHT22;198;48.752;9.180;2023-11-18T09:38:44;9.90;99.90
423;DHT22;198;48.752;9.180;2023-11-18T09:41:12;10.10;99.90
423;DHT22;198;48.752;9.180;2023-11-18T09:43:42;10.20;99.90
423;DHT22;198;48.752;9.180;2023-11-18T09:46:14;10.10;99.90
423;DHT22;198;48.752;9.180;2023-11-18T09:48:45;10.20;99.90
423;DHT22;198;48.752;9.180;2023-11-18T09:51:15;10.20;99.90
423;DHT22;198;48.752;9.180;2023-11-18T09:53:45;10.10;99.90
423;DHT22;198;48.752;9.180;2023-11-18T09:56:17;9.90;99.90
423;DHT22;198;48.752;9.180;2023-11-18T09:59:01;9.90;99.90
423;DHT22;198;48.752;9.180;2023-11-18T10:01:35;9.90;99.90
423;DHT22;198;48.752;9.180;2023-11-18T10:04:04;10.20;99.90
423;DHT22;198;48.752;9.180;2023-11-18T10:06:34;10.20;99.90
423;DHT22;198;48.752;9.180;2023-11-18T10:09:02;10.40;99.90
423;DHT22;198;48.752;9.180;2023-11-18T10:11:44;10.50;99.90
423;DHT22;198;48.752;9.180;2023-11-18T10:14:13;10.50;99.90
423;DHT22;198;48.752;9.180;2023-11-18T10:16:41;10.80;99.90
423;DHT22;198;48.752;9.180;2023-11-18T10:19:07;10.90;99.90
423;DHT22;198;48.752;9.180;2023-11-18T10:21:37;11.20;99.90
423;DHT22;198;48.752;9.180;2023-11-18T10:24:07;11.20;99.90
423;DHT22;198;48.752;9.180;2023-11-18T10:27:00;11.20;99.70
423;DHT22;198;48.752;9.180;2023-11-18T10:29:26;11.20;98.20
423;DHT22;198;48.752;9.180;2023-11-18T10:32:07;11.10;98.80
423;DHT22;198;48.752;9.180;2023-11-18T10:34:34;11.10;99.50
423;DHT22;198;48.752;9.180;2023-11-18T10:37:01;11.10;98.10
423;DHT22;198;48.752;9.180;2023-11-18T10:39:29;11.00;98.30
423;DHT22;198;48.752;9.180;2023-11-18T10:41:59;11.00;97.30
423;DHT22;198;48.752;9.180;2023-11-18T10:44:25;11.10;96.90
423;DHT22;198;48.752;9.180;2023-11-18T10:46:52;11.10;97.30
423;DHT22;198;48.752;9.180;2023-11-18T10:49:19;11.10;97.40
423;DHT22;198;48.752;9.180;2023-11-18T10:51:46;11.00;96.60
423;DHT22;198;48.752;9.180;2023-11-18T10:54:13;11.20;97.50
423;DHT22;198;48.752;9.180;2023-11-18T10:56:49;11.20;97.30
423;DHT22;198;48.752;9.180;2023-11-18T10:59:15;11.20;97.70
423;DHT22;198;48.752;9.180;2023-11-18T11:01:43;11.20;97.50
423;DHT22;198;48.752;9.180;2023-11-18T11:04:09;11.20;97.90
423;DHT22;198;48.752;9.180;2023-11-18T11:06:46;11.20;97.60
423;DHT22;198;48.752;9.180;2023-11-18T11:09:19;11.20;97.40
423;DHT22;198;48.752;9.180;2023-11-18T11:11:52;11.10;97.00
423;DHT22;198;48.752;9.180;2023-11-18T11:14:21;11.10;97.60
423;DHT22;198;48.752;9.180;2023-11-18T11:16:58;11.20;97.50
423;DHT22;198;48.752;9.180;2023-11-18T11:19:38;11.30;97.10
423;DHT22;198;48.752;9.180;2023-11-18T11:22:10;11.40;95.90
423;DHT22;198;48.752;9.180;2023-11-18T11:27:41;11.80;94.90
423;DHT22;198;48.752;9.180;2023-11-18T11:30:23;11.70;94.10
423;DHT22;198;48.752;9.180;2023-11-18T11:32:51;11.80;93.50
423;DHT22;198;48.752;9.180;2023-11-18T11:35:23;11.70;93.00
423;DHT22;198;48.752;9.180;2023-11-18T11:37:50;11.80;93.70
423;DHT22;198;48.752;9.180;2023-11-18T11:40:21;11.70;93.30
423;DHT22;198;48.752;9.180;2023-11-18T11:42:49;11.60;93.50
423;DHT22;198;48.752;9.180;2023-11-18T11:45:21;11.60;93.90
423;DHT22;198;48.752;9.180;2023-11-18T11:47:50;11.50;93.60
423;DHT22;198;48.752;9.180;2023-11-18T11:50:25;11.40;94.20
423;DHT22;198;48.752;9.180;2023-11-18T11:53:08;11.30;94.60
423;DHT22;198;48.752;9.180;2023-11-18T11:55:47;11.30;94.80
423;DHT22;198;48.752;9.180;2023-11-18T11:58:34;11.20;95.10
423;DHT22;198;48.752;9.180;2023-11-18T12:01:21;11.00;95.70
423;DHT22;198;48.752;9.180;2023-11-18T12:03:56;10.90;96.00
423;DHT22;198;48.752;9.180;2023-11-18T12:06:24;10.90;96.90
423;DHT22;198;48.752;9.180;2023-11-18T12:08:54;10.80;96.10
423;DHT22;198;48.752;9.180;2023-11-18T12:11:21;10.70;96.50
423;DHT22;198;48.752;9.180;2023-11-18T12:14:13;10.60;97.10
423;DHT22;198;48.752;9.180;2023-11-18T12:17:00;10.50;97.40
423;DHT22;198;48.752;9.180;2023-11-18T12:19:39;10.50;97.90
423;DHT22;198;48.752;9.180;2023-11-18T12:22:16;10.50;96.90
423;DHT22;198;48.752;9.180;2023-11-18T12:32:57;10.20;99.30
423;DHT22;198;48.752;9.180;2023-11-18T12:41:35;10.00;97.20
423;DHT22;198;48.752;9.180;2023-11-18T12:44:30;10.00;97.40
423;DHT22;198;48.752;9.180;2023-11-18T12:47:01;9.90;98.10
423;DHT22;198;48.752;9.180;2023-11-18T12:49:42;9.90;97.70
423;DHT22;198;48.752;9.180;2023-11-18T12:52:10;9.70;98.00
423;DHT22;198;48.752;9.180;2023-11-18T12:54:36;9.70;98.10
423;DHT22;198;48.752;9.180;2023-11-18T12:57:12;9.50;98.30
423;DHT22;198;48.752;9.180;2023-11-18T12:59:41;9.50;99.20
423;DHT22;198;48.752;9.180;2023-11-18T13:02:08;9.40;99.90
423;DHT22;198;48.752;9.180;2023-11-18T13:04:39;9.50;99.90
423;DHT22;198;48.752;9.180;2023-11-18T13:07:06;9.30;99.90
423;DHT22;198;48.752;9.180;2023-11-18T13:09:34;9.30;99.90
423;DHT22;198;48.752;9.180;2023-11-18T13:12:02;9.20;99.90
423;DHT22;198;48.752;9.180;2023-11-18T13:14:32;9.10;99.90
423;DHT22;198;48.752;9.180;2023-11-18T13:17:15;9.10;99.90
423;DHT22;198;48.752;9.180;2023-11-18T13:19:42;9.00;99.90
423;DHT22;198;48.752;9.180;2023-11-18T13:22:09;8.90;99.90
423;DHT22;198;48.752;9.180;2023-11-18T13:24:36;9.00;99.90
423;DHT22;198;48.752;9.180;2023-11-18T13:27:03;9.00;99.90
423;DHT22;198;48.752;9.180;2023-11-18T13:29:34;9.10;99.90
423;DHT22;198;48.752;9.180;2023-11-18T13:32:01;9.00;99.90
423;DHT22;198;48.752;9.180;2023-11-18T13:34:39;9.00;99.90
423;DHT22;198;48.752;9.180;2023-11-18T13:37:08;9.00;99.90
423;DHT22;198;48.752;9.180;2023-11-18T13:39:34;8.90;99.90
423;DHT22;198;48.752;9.180;2023-11-18T13:42:20;8.80;99.90
423;DHT22;198;48.752;9.180;2023-11-18T13:44:46;8.80;99.90
423;DHT22;198;48.752;9.180;2023-11-18T13:47:16;8.80;99.90
423;DHT22;198;48.752;9.180;2023-11-18T13:49:42;8.70;99.90
423;DHT22;198;48.752;9.180;2023-11-18T13:52:08;8.70;99.90
423;DHT22;198;48.752;9.180;2023-11-18T13:54:36;8.80;99.90
423;DHT22;198;48.752;9.180;2023-11-18T13:57:03;8.80;99.90
423;DHT22;198;48.752;9.180;2023-11-18T13:59:29;8.80;99.90
423;DHT22;198;48.752;9.180;2023-11-18T14:01:55;8.70;99.90
423;DHT22;198;48.752;9.180;2023-11-18T14:04:26;8.80;99.90
423;DHT22;198;48.752;9.180;2023-11-18T14:06:53;8.80;99.90
423;DHT22;198;48.752;9.180;2023-11-18T14:09:21;8.80;99.90
423;DHT22;198;48.752;9.180;2023-11-18T14:11:53;8.70;99.90
423;DHT22;198;48.752;9.180;2023-11-18T14:14:22;8.70;99.90
423;DHT22;198;48.752;9.180;2023-11-18T14:16:48;8.80;99.90
423;DHT22;198;48.752;9.180;2023-11-18T14:19:14;8.80;99.90
423;DHT22;198;48.752;9.180;2023-11-18T14:21:40;8.80;99.90
423;DHT22;198;48.752;9.180;2023-11-18T14:24:08;8.90;99.90
423;DHT22;198;48.752;9.180;2023-11-18T14:26:33;8.90;99.90
423;DHT22;198;48.752;9.180;2023-11-18T14:28:59;8.80;99.90
423;DHT22;198;48.752;9.180;2023-11-18T14:31:25;8.80;99.90
423;DHT22;198;48.752;9.180;2023-11-18T14:33:51;8.70;99.90
423;DHT22;198;48.752;9.180;2023-11-18T14:36:17;8.60;99.90
423;DHT22;198;48.752;9.180;2023-11-18T14:38:44;8.60;99.90
423;DHT22;198;48.752;9.180;2023-11-18T14:41:10;8.50;99.90
423;DHT22;198;48.752;9.180;2023-11-18T14:43:36;8.50;99.90
423;DHT22;198;48.752;9.180;2023-11-18T14:46:01;8.50;99.90
423;DHT22;198;48.752;9.180;2023-11-18T14:48:29;8.40;99.90
423;DHT22;198;48.752;9.180;2023-11-18T14:50:54;8.40;99.90
423;DHT22;198;48.752;9.180;2023-11-18T14:53:22;8.30;99.90
423;DHT22;198;48.752;9.180;2023-11-18T14:55:48;8.30;99.90
423;DHT22;198;48.752;9.180;2023-11-18T14:58:14;8.30;99.90
423;DHT22;198;48.752;9.180;2023-11-18T15:00:39;8.30;99.90
423;DHT22;198;48.752;9.180;2023-11-18T15:03:05;8.20;99.90
423;DHT22;198;48.752;9.180;2023-11-18T15:05:31;8.20;99.90
423;DHT22;198;48.752;9.180;2023-11-18T15:07:57;8.20;99.90
423;DHT22;198;48.752;9.180;2023-11-18T15:10:27;8.20;99.90
423;DHT22;198;48.752;9.180;2023-11-18T15:12:57;8.10;99.90
423;DHT22;198;48.752;9.180;2023-11-18T15:15:28;8.20;99.90
423;DHT22;198;48.752;9.180;2023-11-18T15:17:58;8.10;99.90
423;DHT22;198;48.752;9.180;2023-11-18T15:20:24;8.10;99.90
423;DHT22;198;48.752;9.180;2023-11-18T15:22:50;8.10;99.90
423;DHT22;198;48.752;9.180;2023-11-18T15:25:15;8.10;99.90
423;DHT22;198;48.752;9.180;2023-11-18T15:27:43;8.10;99.90
423;DHT22;198;48.752;9.180;2023-11-18T15:30:11;8.10;99.90
423;DHT22;198;48.752;9.180;2023-11-18T15:32:41;8.00;99.90
423;DHT22;198;48.752;9.180;2023-11-18T15:35:07;8.00;99.90
423;DHT22;198;48.752;9.180;2023-11-18T15:37:39;8.00;99.90
423;DHT22;198;48.752;9.180;2023-11-18T15:40:07;8.00;99.90
423;DHT22;198;48.752;9.180;2023-11-18T15:42:37;8.00;99.90
423;DHT22;198;48.752;9.180;2023-11-18T15:45:03;8.00;99.90
423;DHT22;198;48.752;9.180;2023-11-18T15:47:30;8.00;99.90
423;DHT22;198;48.752;9.180;2023-11-18T15:49:55;7.90;99.90
423;DHT22;198;48.752;9.180;2023-11-18T15:52:21;7.90;99.90
423;DHT22;198;48.752;9.180;2023-11-18T15:54:46;7.90;99.90
423;DHT22;198;48.752;9.180;2023-11-18T15:57:12;7.90;99.90
423;DHT22;198;48.752;9.180;2023-11-18T15:59:38;7.90;99.90
423;DHT22;198;48.752;9.180;2023-11-18T16:02:04;7.90;99.90
423;DHT22;198;48.752;9.180;2023-11-18T16:04:31;7.80;99.90
423;DHT22;198;48.752;9.180;2023-11-18T16:06:56;7.80;99.90
423;DHT22;198;48.752;9.180;2023-11-18T16:09:22;7.70;99.90
423;DHT22;198;48.752;9.180;2023-11-18T16:11:47;7.70;99.90
423;DHT22;198;48.752;9.180;2023-11-18T16:14:14;7.70;99.90
423;DHT22;198;48.752;9.180;2023-11-18T16:16:42;7.80;99.90
423;DHT22;198;48.752;9.180;2023-11-18T16:19:07;7.80;99.90
423;DHT22;198;48.752;9.180;2023-11-18T16:21:37;7.70;99.90
423;DHT22;198;48.752;9.180;2023-11-18T16:24:03;7.80;99.90
423;DHT22;198;48.752;9.180;2023-11-18T16:26:29;7.80;99.90
423;DHT22;198;48.752;9.180;2023-11-18T16:28:54;7.80;99.90
423;DHT22;198;48.752;9.180;2023-11-18T16:31:21;7.80;99.90
423;DHT22;198;48.752;9.180;2023-11-18T16:33:47;7.80;99.90
423;DHT22;198;48.752;9.180;2023-11-18T16:36:20;7.80;99.90
423;DHT22;198;48.752;9.180;2023-11-18T16:38:47;7.70;99.90
423;DHT22;198;48.752;9.180;2023-11-18T16:41:13;7.80;99.90
423;DHT22;198;48.752;9.180;2023-11-18T16:43:39;7.80;99.90
423;DHT22;198;48.752;9.180;2023-11-18T16:46:04;7.70;99.90
423;DHT22;198;48.752;9.180;2023-11-18T16:48:31;7.70;99.90
423;DHT22;198;48.752;9.180;2023-11-18T16:50:57;7.70;99.90
423;DHT22;198;48.752;9.180;2023-11-18T16:53:22;7.70;99.90
423;DHT22;198;48.752;9.180;2023-11-18T16:55:48;7.70;99.90
423;DHT22;198;48.752;9.180;2023-11-18T16:58:13;7.70;99.90
423;DHT22;198;48.752;9.180;2023-11-18T17:00:39;7.70;99.90
423;DHT22;198;48.752;9.180;2023-11-18T17:03:06;7.70;99.90
423;DHT22;198;48.752;9.180;2023-11-18T17:05:32;7.70;99.90
423;DHT22;198;48.752;9.180;2023-11-18T17:07:57;7.70;99.90
423;DHT22;198;48.752;9.180;2023-11-18T17:10:23;7.70;99.90
423;DHT22;198;48.752;9.180;2023-11-18T17:12:49;7.70;99.90
423;DHT22;198;48.752;9.180;2023-11-18T17:15:15;7.70;99.90